DucheSS Of Scandinavia — OUZI2 — position and weather

sailwx.info

Track history (hours):
 
Tides and Currents Weather Stations Pressure Air Temp Water Temp Dewpoint Dewpoint Depression Visibility Wind Speed Wind Dir Waves Ship Positions

DucheSS Of Scandinavia

Operator: DFDS A/S

Last reported at 2020-Jul-02 16:00 UTC. Time now 2020-Jul-02 16:27 UTC.
Position N 57°56' E 009°57'.

Length 134 m; draft 5.6 m.

Type: Passenger vessel. MMSI: 219002929.

Date/timePositionNaut miles runAvg speedWind from/ knotsBaromVisibWave heightAir tempDewpointWater temp
2020-Jul-02 16:00N 57°56' E 009°57'5 1.2
2020-Jul-02 11:30N 58°01' E 009°55'816.1
2020-Jul-02 11:00N 58°09' E 009°54'816.4
2020-Jul-02 10:30N 58°17' E 009°53'1716.8
2020-Jul-02 09:30N 58°34' E 009°51'916.9
2020-Jul-02 09:00N 58°43' E 009°49'18 7.1
2020-Jul-02 06:29N 59°00' E 009°45'0 0.0
2020-Jul-02 04:00N 59°00' E 009°45'0 0.0
2020-Jul-02 03:28N 59°00' E 009°45'0 0.0
2020-Jul-02 02:28N 59°00' E 009°45'0 0.0
2020-Jul-02 01:29N 59°00' E 009°45'0 0.0
2020-Jul-01 23:30N 59°00' E 009°45'23 4.6
2020-Jul-01 18:30N 58°38' E 009°50'4116.5
2020-Jul-01 16:00N 57°56' E 009°55'19 6.4
2020-Jul-01 13:04N 57°38' E 009°57'8310.9
2020-Jul-01 05:29N 59°00' E 009°45'0 0.0
2020-Jul-01 04:00N 59°00' E 009°45'0 0.0
2020-Jul-01 02:28N 59°00' E 009°45'0 0.0
2020-Jun-30 23:59N 59°00' E 009°45'0 0.0
2020-Jun-30 21:28N 59°00' E 009°45'24 8.1
2020-Jun-30 18:30N 58°36' E 009°49'816.1
2020-Jun-30 18:00N 58°28' E 009°51'816.3
2020-Jun-30 17:30N 58°20' E 009°52'1616.2
2020-Jun-30 16:30N 58°04' E 009°55'9 1.9
2020-Jun-30 12:00N 57°56' E 009°56'6514.5
2020-Jun-30 07:31N 59°00' E 009°45'0 0.0
2020-Jun-30 06:29N 59°00' E 009°45'0 0.0
2020-Jun-30 03:28N 59°00' E 009°45'0 0.0
2020-Jun-30 02:28N 59°00' E 009°45'0 0.0
2020-Jun-30 00:30N 59°00' E 009°45'0 0.0
2020-Jun-29 22:58N 59°00' E 009°45'0 0.0
2020-Jun-29 22:28N 59°00' E 009°45'0 0.0
2020-Jun-29 21:29N 59°00' E 009°45'5711.4
2020-Jun-29 16:30N 58°04' E 009°54'917.0
2020-Jun-29 15:59N 57°55' E 009°55'17 5.6
2020-Jun-29 13:01N 57°39' E 009°57'8213.6
2020-Jun-29 07:00N 59°00' E 009°45'0 0.0
2020-Jun-29 05:28N 59°00' E 009°45'0 0.0
2020-Jun-29 04:29N 59°00' E 009°45'0 0.0
2020-Jun-29 00:29N 59°00' E 009°45'0 0.0
2020-Jun-28 23:29N 59°00' E 009°45'0 0.0
2020-Jun-28 22:30N 59°00' E 009°45'0 0.0
2020-Jun-28 22:00N 59°00' E 009°45'0 0.0
2020-Jun-28 21:28N 59°00' E 009°45'24 8.0
2020-Jun-28 18:29N 58°37' E 009°49'6112.3
2020-Jun-28 13:30N 57°36' E 009°59'1812.0
2020-Jun-28 12:00N 57°54' E 009°55'6714.7
2020-Jun-28 07:28N 59°00' E 009°45'0 0.0
2020-Jun-28 04:59N 59°00' E 009°45'0 0.0
2020-Jun-28 02:28N 59°00' E 009°45'0 0.0
2020-Jun-28 01:29N 59°00' E 009°45'0 0.0
2020-Jun-27 23:00N 59°00' E 009°45'0 0.0
2020-Jun-27 22:28N 59°00' E 009°45'20 6.7
2020-Jun-27 19:30N 58°41' E 009°48'917.3
2020-Jun-27 19:00N 58°32' E 009°49'4417.5
2020-Jun-27 16:30N 57°48' E 009°54'8 3.3
2020-Jun-27 14:00N 57°40' E 009°56'816.1
2020-Jun-27 13:30N 57°47' E 009°50'6616.4
2020-Jun-27 09:30N 58°53' E 009°47'7 4.9
2020-Jun-27 07:59N 59°00' E 009°45'0 0.0
2020-Jun-27 07:30N 59°00' E 009°45'0 0.0
2020-Jun-27 05:58N 59°00' E 009°45'0 0.0
2020-Jun-27 02:30N 59°00' E 009°45'0 0.0
2020-Jun-27 02:00N 59°00' E 009°45'0 0.0
2020-Jun-27 00:58N 59°00' E 009°45'0 0.0
2020-Jun-26 22:59N 59°00' E 009°45'0 0.0
2020-Jun-26 21:00N 59°00' E 009°45'0 0.0
2020-Jun-26 20:30N 59°00' E 009°45'9 6.2
2020-Jun-26 19:00N 58°51' E 009°47'2516.9
2020-Jun-26 17:30N 58°26' E 009°51'2617.4
2020-Jun-26 16:00N 57°60' E 009°54'2410.7
2020-Jun-26 13:46N 57°36' E 009°58'3 4.4
2020-Jun-26 13:00N 57°39' E 009°56'815.6
2020-Jun-26 12:31N 57°47' E 009°54'816.0
2020-Jun-26 12:01N 57°55' E 009°54'816.3
2020-Jun-26 11:30N 58°03' E 009°54'816.7
2020-Jun-26 11:00N 58°11' E 009°53'4916.3
2020-Jun-26 08:00N 58°60' E 009°45'0 0.9
2020-Jun-26 07:28N 59°00' E 009°45'0 0.0
2020-Jun-26 06:58N 59°00' E 009°45'0 0.0
2020-Jun-26 05:59N 59°00' E 009°45'0 0.0
2020-Jun-26 05:29N 59°00' E 009°45'0 0.0
2020-Jun-26 02:28N 59°00' E 009°45'0 0.0
2020-Jun-26 00:30N 59°00' E 009°45'0 0.0
2020-Jun-25 20:00N 59°00' E 009°45'1413.7
2020-Jun-25 19:00N 58°47' E 009°47'1716.6
2020-Jun-25 18:00N 58°30' E 009°48'2516.8
2020-Jun-25 16:30N 58°05' E 009°55'3014.8
2020-Jun-25 14:31N 57°36' E 009°59'5 3.2
2020-Jun-25 13:00N 57°40' E 009°56'816.3
2020-Jun-25 12:30N 57°49' E 009°55'816.3
2020-Jun-25 12:00N 57°57' E 009°54'816.6
2020-Jun-25 11:30N 58°05' E 009°54'3216.2
2020-Jun-25 09:30N 58°37' E 009°49'1717.4
2020-Jun-25 08:30N 58°55' E 009°47'6 1.6
2020-Jun-25 04:58N 59°00' E 009°45'0 0.0
2020-Jun-25 03:59N 59°00' E 009°45'0 0.0
2020-Jun-25 03:00N 59°00' E 009°45'0 0.0
2020-Jun-25 02:00N 59°00' E 009°45'0 0.0
2020-Jun-25 01:28N 59°00' E 009°45'0 0.0
2020-Jun-24 23:59N 59°00' E 009°45'0 0.0
2020-Jun-24 20:58N 59°00' E 009°45'22 9.0
2020-Jun-24 18:30N 58°38' E 009°49'5117.1
2020-Jun-24 15:30N 57°47' E 009°58'11 7.6
2020-Jun-24 14:01N 57°36' E 009°59'20 9.8
2020-Jun-24 12:00N 57°55' E 009°54'917.2
2020-Jun-24 11:30N 58°04' E 009°53'2516.9
2020-Jun-24 10:01N 58°29' E 009°51'3210.3
2020-Jun-24 06:58N 59°00' E 009°45'0 0.0
2020-Jun-24 05:58N 59°00' E 009°45'0 0.0
2020-Jun-24 04:00N 59°00' E 009°45'0 0.0
2020-Jun-24 03:00N 59°00' E 009°45'0 0.0
2020-Jun-24 02:28N 59°00' E 009°45'0 0.0
2020-Jun-24 00:59N 59°00' E 009°45'0 0.0
2020-Jun-23 21:58N 59°00' E 009°45'0 0.0
2020-Jun-23 21:28N 59°00' E 009°45'23 7.8
2020-Jun-23 18:30N 58°37' E 009°50'1716.8
2020-Jun-23 17:30N 58°21' E 009°53'4511.2
2020-Jun-23 13:30N 57°36' E 009°59'3614.5
2020-Jun-23 11:00N 58°12' E 009°51'816.7
2020-Jun-23 10:30N 58°20' E 009°50'816.1
2020-Jun-23 10:00N 58°28' E 009°49'815.8
2020-Jun-23 09:30N 58°36' E 009°48'1616.4
2020-Jun-23 08:30N 58°53' E 009°47'8 2.6
2020-Jun-23 05:29N 59°00' E 009°45'0 0.0
2020-Jun-23 04:59N 59°00' E 009°45'0 0.0
2020-Jun-23 04:00N 59°00' E 009°45'0 0.0
2020-Jun-23 03:00N 59°00' E 009°45'0 0.0
2020-Jun-23 01:28N 59°00' E 009°45'0 0.0
2020-Jun-22 23:30N 59°00' E 009°45'0 0.0
2020-Jun-22 21:28N 59°00' E 009°45'0 0.0
2020-Jun-22 20:58N 59°00' E 009°45'0 0.1
2020-Jun-22 20:29N 59°00' E 009°45'611.8
2020-Jun-22 20:00N 58°55' E 009°46'5716.3
2020-Jun-22 16:30N 57°58' E 010°00'  
Track history (hours):
 
Tides and Currents Weather Stations Pressure Air Temp Water Temp Dewpoint Dewpoint Depression Visibility Wind Speed Wind Dir Waves Ship Positions

DucheSS Of Scandinavia

Operator: DFDS A/S

Last reported at 2020-Jul-02 16:00 UTC. Time now 2020-Jul-02 16:27 UTC.
Position N 57°56' E 009°57'.

Length 134 m; draft 5.6 m.

Type: Passenger vessel. MMSI: 219002929.

Date/timePositionNaut miles runAvg speedWind from/ knotsBaromVisibWave heightAir tempDewpointWater temp
2020-Jul-02 16:00N 57°56' E 009°57'5 1.2
2020-Jul-02 11:30N 58°01' E 009°55'816.1
2020-Jul-02 11:00N 58°09' E 009°54'816.4
2020-Jul-02 10:30N 58°17' E 009°53'1716.8
2020-Jul-02 09:30N 58°34' E 009°51'916.9
2020-Jul-02 09:00N 58°43' E 009°49'18 7.1
2020-Jul-02 06:29N 59°00' E 009°45'0 0.0
2020-Jul-02 04:00N 59°00' E 009°45'0 0.0
2020-Jul-02 03:28N 59°00' E 009°45'0 0.0
2020-Jul-02 02:28N 59°00' E 009°45'0 0.0
2020-Jul-02 01:29N 59°00' E 009°45'0 0.0
2020-Jul-01 23:30N 59°00' E 009°45'23 4.6
2020-Jul-01 18:30N 58°38' E 009°50'4116.5
2020-Jul-01 16:00N 57°56' E 009°55'19 6.4
2020-Jul-01 13:04N 57°38' E 009°57'8310.9
2020-Jul-01 05:29N 59°00' E 009°45'0 0.0
2020-Jul-01 04:00N 59°00' E 009°45'0 0.0
2020-Jul-01 02:28N 59°00' E 009°45'0 0.0
2020-Jun-30 23:59N 59°00' E 009°45'0 0.0
2020-Jun-30 21:28N 59°00' E 009°45'24 8.1
2020-Jun-30 18:30N 58°36' E 009°49'816.1
2020-Jun-30 18:00N 58°28' E 009°51'816.3
2020-Jun-30 17:30N 58°20' E 009°52'1616.2
2020-Jun-30 16:30N 58°04' E 009°55'9 1.9
2020-Jun-30 12:00N 57°56' E 009°56'6514.5
2020-Jun-30 07:31N 59°00' E 009°45'0 0.0
2020-Jun-30 06:29N 59°00' E 009°45'0 0.0
2020-Jun-30 03:28N 59°00' E 009°45'0 0.0
2020-Jun-30 02:28N 59°00' E 009°45'0 0.0
2020-Jun-30 00:30N 59°00' E 009°45'0 0.0
2020-Jun-29 22:58N 59°00' E 009°45'0 0.0
2020-Jun-29 22:28N 59°00' E 009°45'0 0.0
2020-Jun-29 21:29N 59°00' E 009°45'5711.4
2020-Jun-29 16:30N 58°04' E 009°54'917.0
2020-Jun-29 15:59N 57°55' E 009°55'17 5.6
2020-Jun-29 13:01N 57°39' E 009°57'8213.6
2020-Jun-29 07:00N 59°00' E 009°45'0 0.0
2020-Jun-29 05:28N 59°00' E 009°45'0 0.0
2020-Jun-29 04:29N 59°00' E 009°45'0 0.0
2020-Jun-29 00:29N 59°00' E 009°45'0 0.0
2020-Jun-28 23:29N 59°00' E 009°45'0 0.0
2020-Jun-28 22:30N 59°00' E 009°45'0 0.0
2020-Jun-28 22:00N 59°00' E 009°45'0 0.0
2020-Jun-28 21:28N 59°00' E 009°45'24 8.0
2020-Jun-28 18:29N 58°37' E 009°49'6112.3
2020-Jun-28 13:30N 57°36' E 009°59'1812.0
2020-Jun-28 12:00N 57°54' E 009°55'6714.7
2020-Jun-28 07:28N 59°00' E 009°45'0 0.0
2020-Jun-28 04:59N 59°00' E 009°45'0 0.0
2020-Jun-28 02:28N 59°00' E 009°45'0 0.0
2020-Jun-28 01:29N 59°00' E 009°45'0 0.0
2020-Jun-27 23:00N 59°00' E 009°45'0 0.0
2020-Jun-27 22:28N 59°00' E 009°45'20 6.7
2020-Jun-27 19:30N 58°41' E 009°48'917.3
2020-Jun-27 19:00N 58°32' E 009°49'4417.5
2020-Jun-27 16:30N 57°48' E 009°54'8 3.3
2020-Jun-27 14:00N 57°40' E 009°56'816.1
2020-Jun-27 13:30N 57°47' E 009°50'6616.4
2020-Jun-27 09:30N 58°53' E 009°47'7 4.9
2020-Jun-27 07:59N 59°00' E 009°45'0 0.0
2020-Jun-27 07:30N 59°00' E 009°45'0 0.0
2020-Jun-27 05:58N 59°00' E 009°45'0 0.0
2020-Jun-27 02:30N 59°00' E 009°45'0 0.0
2020-Jun-27 02:00N 59°00' E 009°45'0 0.0
2020-Jun-27 00:58N 59°00' E 009°45'0 0.0
2020-Jun-26 22:59N 59°00' E 009°45'0 0.0
2020-Jun-26 21:00N 59°00' E 009°45'0 0.0
2020-Jun-26 20:30N 59°00' E 009°45'9 6.2
2020-Jun-26 19:00N 58°51' E 009°47'2516.9
2020-Jun-26 17:30N 58°26' E 009°51'2617.4
2020-Jun-26 16:00N 57°60' E 009°54'2410.7
2020-Jun-26 13:46N 57°36' E 009°58'3 4.4
2020-Jun-26 13:00N 57°39' E 009°56'815.6
2020-Jun-26 12:31N 57°47' E 009°54'816.0
2020-Jun-26 12:01N 57°55' E 009°54'816.3
2020-Jun-26 11:30N 58°03' E 009°54'816.7
2020-Jun-26 11:00N 58°11' E 009°53'4916.3
2020-Jun-26 08:00N 58°60' E 009°45'0 0.9
2020-Jun-26 07:28N 59°00' E 009°45'0 0.0
2020-Jun-26 06:58N 59°00' E 009°45'0 0.0
2020-Jun-26 05:59N 59°00' E 009°45'0 0.0
2020-Jun-26 05:29N 59°00' E 009°45'0 0.0
2020-Jun-26 02:28N 59°00' E 009°45'0 0.0
2020-Jun-26 00:30N 59°00' E 009°45'0 0.0
2020-Jun-25 20:00N 59°00' E 009°45'1413.7
2020-Jun-25 19:00N 58°47' E 009°47'1716.6
2020-Jun-25 18:00N 58°30' E 009°48'2516.8
2020-Jun-25 16:30N 58°05' E 009°55'3014.8
2020-Jun-25 14:31N 57°36' E 009°59'5 3.2
2020-Jun-25 13:00N 57°40' E 009°56'816.3
2020-Jun-25 12:30N 57°49' E 009°55'816.3
2020-Jun-25 12:00N 57°57' E 009°54'816.6
2020-Jun-25 11:30N 58°05' E 009°54'3216.2
2020-Jun-25 09:30N 58°37' E 009°49'1717.4
2020-Jun-25 08:30N 58°55' E 009°47'6 1.6
2020-Jun-25 04:58N 59°00' E 009°45'0 0.0
2020-Jun-25 03:59N 59°00' E 009°45'0 0.0
2020-Jun-25 03:00N 59°00' E 009°45'0 0.0
2020-Jun-25 02:00N 59°00' E 009°45'0 0.0
2020-Jun-25 01:28N 59°00' E 009°45'0 0.0
2020-Jun-24 23:59N 59°00' E 009°45'0 0.0
2020-Jun-24 20:58N 59°00' E 009°45'22 9.0
2020-Jun-24 18:30N 58°38' E 009°49'5117.1
2020-Jun-24 15:30N 57°47' E 009°58'11 7.6
2020-Jun-24 14:01N 57°36' E 009°59'20 9.8
2020-Jun-24 12:00N 57°55' E 009°54'917.2
2020-Jun-24 11:30N 58°04' E 009°53'2516.9
2020-Jun-24 10:01N 58°29' E 009°51'3210.3
2020-Jun-24 06:58N 59°00' E 009°45'0 0.0
2020-Jun-24 05:58N 59°00' E 009°45'0 0.0
2020-Jun-24 04:00N 59°00' E 009°45'0 0.0
2020-Jun-24 03:00N 59°00' E 009°45'0 0.0
2020-Jun-24 02:28N 59°00' E 009°45'0 0.0
2020-Jun-24 00:59N 59°00' E 009°45'0 0.0
2020-Jun-23 21:58N 59°00' E 009°45'0 0.0
2020-Jun-23 21:28N 59°00' E 009°45'23 7.8
2020-Jun-23 18:30N 58°37' E 009°50'1716.8
2020-Jun-23 17:30N 58°21' E 009°53'4511.2
2020-Jun-23 13:30N 57°36' E 009°59'3614.5
2020-Jun-23 11:00N 58°12' E 009°51'816.7
2020-Jun-23 10:30N 58°20' E 009°50'816.1
2020-Jun-23 10:00N 58°28' E 009°49'815.8
2020-Jun-23 09:30N 58°36' E 009°48'1616.4
2020-Jun-23 08:30N 58°53' E 009°47'8 2.6
2020-Jun-23 05:29N 59°00' E 009°45'0 0.0
2020-Jun-23 04:59N 59°00' E 009°45'0 0.0
2020-Jun-23 04:00N 59°00' E 009°45'0 0.0
2020-Jun-23 03:00N 59°00' E 009°45'0 0.0
2020-Jun-23 01:28N 59°00' E 009°45'0 0.0
2020-Jun-22 23:30N 59°00' E 009°45'0 0.0
2020-Jun-22 21:28N 59°00' E 009°45'0 0.0
2020-Jun-22 20:58N 59°00' E 009°45'0 0.1
2020-Jun-22 20:29N 59°00' E 009°45'611.8
2020-Jun-22 20:00N 58°55' E 009°46'5716.3
2020-Jun-22 16:30N 57°58' E 010°00'  

Dump ship's entire track history